Time;durP1;ratioP1;P1;durP2;ratioP2;P2;SDS_P1;SDS_P2;PMS_P1;PMS_P2;Temp;Humidity;BMP_temperature;BMP_pressure;BME280_temperature;BME280_humidity;BME280_pressure;Samples;Min_cycle;Max_cycle;Signal;HPM_P1;HPM_P2
2021/04/29 00:00:17;;;;;;;10.85;7.72;;;;;;;10.60;86.03;97407.94;5070641;28;20025;-69
2021/04/29 00:02:43;;;;;;;12.32;7.05;;;;;;;10.78;85.08;97408.88;5072081;28;20798;-69
2021/04/29 00:05:11;;;;;;;11.43;7.50;;;;;;;10.71;84.84;97390.88;5070487;28;20029;-69
2021/04/29 00:07:37;;;;;;;11.85;7.15;;;;;;;10.75;85.82;97413.69;5051431;28;20092;-69
2021/04/29 00:10:05;;;;;;;13.05;7.50;;;;;;;10.59;86.14;97392.81;5051824;28;20111;-69
2021/04/29 00:12:31;;;;;;;11.93;7.03;;;;;;;10.69;86.53;97413.84;5050151;28;20045;-69
2021/04/29 00:14:57;;;;;;;12.05;7.60;;;;;;;10.68;86.55;97404.88;5052370;28;20040;-69
2021/04/29 00:17:23;;;;;;;10.60;6.03;;;;;;;10.83;85.37;97408.97;5024225;28;20593;-69
2021/04/29 00:19:48;;;;;;;10.30;6.93;;;;;;;10.65;85.64;97418.06;5033868;28;20029;-69
2021/04/29 00:22:14;;;;;;;9.77;6.82;;;;;;;10.51;86.93;97406.69;5034383;28;20028;-69
2021/04/29 00:24:39;;;;;;;12.90;6.80;;;;;;;10.57;86.46;97405.72;5052202;28;20063;-69
2021/04/29 00:27:05;;;;;;;13.07;7.60;;;;;;;10.51;86.87;97401.28;5051698;28;20132;-69
2021/04/29 00:29:30;;;;;;;9.63;6.57;;;;;;;10.47;86.93;97402.81;5051811;28;20020;-69
2021/04/29 00:31:55;;;;;;;10.80;6.65;;;;;;;10.58;87.41;97409.25;5052993;28;20429;-69
2021/04/29 00:34:20;;;;;;;14.18;7.25;;;;;;;10.63;87.63;97415.59;5016664;28;20509;-69
2021/04/29 00:36:46;;;;;;;10.60;7.10;;;;;;;10.46;86.88;97398.47;5031541;28;20025;-68
2021/04/29 00:39:11;;;;;;;13.52;6.78;;;;;;;10.46;87.19;97406.56;5040631;28;20067;-68
2021/04/29 00:41:36;;;;;;;11.68;7.22;;;;;;;10.54;86.30;97411.63;5051613;28;20060;-68
2021/04/29 00:44:02;;;;;;;12.70;7.75;;;;;;;10.60;86.74;97415.25;5030155;28;20032;-68
2021/04/29 00:46:28;;;;;;;12.27;7.47;;;;;;;10.50;87.35;97403.13;5051691;28;20051;-69
2021/04/29 00:48:53;;;;;;;10.65;6.88;;;;;;;10.61;86.77;97416.88;5033791;28;20031;-68
2021/04/29 00:51:20;;;;;;;9.65;6.80;;;;;;;10.60;87.10;97413.38;5050481;28;20025;-68
2021/04/29 00:53:46;;;;;;;10.38;6.88;;;;;;;10.64;86.78;97403.72;5049673;28;20069;-69
2021/04/29 00:56:12;;;;;;;12.13;6.55;;;;;;;10.59;86.73;97414.44;5057892;28;20032;-68
2021/04/29 00:58:38;;;;;;;11.98;6.75;;;;;;;10.75;86.82;97431.81;5051065;28;20040;-69
2021/04/29 01:01:05;;;;;;;13.32;8.00;;;;;;;10.68;87.16;97429.22;5034863;28;20025;-68
2021/04/29 01:03:47;;;;;;;12.30;7.95;;;;;;;10.63;87.94;97421.00;5058468;28;20025;-68
2021/04/29 01:06:17;;;;;;;12.73;8.27;;;;;;;10.69;89.03;97427.38;5052604;28;20017;-68
2021/04/29 01:08:57;;;;;;;11.90;8.07;;;;;;;10.71;89.15;97426.03;5053207;28;20029;-68
2021/04/29 01:11:25;;;;;;;12.73;7.97;;;;;;;10.76;89.44;97430.75;5033490;28;20103;-69
2021/04/29 01:13:53;;;;;;;11.40;8.35;;;;;;;10.70;89.97;97429.81;5058743;28;20083;-68
2021/04/29 01:16:22;;;;;;;11.10;8.15;;;;;;;10.69;90.56;97425.47;5034665;28;20025;-69
2021/04/29 01:18:48;;;;;;;15.93;8.48;;;;;;;10.70;90.75;97435.22;5026635;28;20111;-68
2021/04/29 01:21:16;;;;;;;12.10;8.63;;;;;;;10.71;90.51;97434.16;5055260;28;20039;-68
2021/04/29 01:23:41;;;;;;;14.50;8.40;;;;;;;10.75;90.57;97443.44;5072903;28;20025;-68
2021/04/29 01:26:40;;;;;;;12.20;7.40;;;;;;;10.79;90.39;97448.38;5073219;28;20038;-68
2021/04/29 01:29:09;;;;;;;15.63;7.87;;;;;;;10.86;90.23;97449.09;5046091;28;20079;-69
2021/04/29 01:31:37;;;;;;;12.02;7.75;;;;;;;10.89;90.39;97438.59;5022534;28;20360;-68
2021/04/29 01:34:05;;;;;;;11.32;7.38;;;;;;;10.79;89.91;97429.44;5060866;28;20029;-68
2021/04/29 01:36:32;;;;;;;11.50;7.68;;;;;;;10.85;89.99;97434.75;5058900;28;20027;-68
2021/04/29 01:39:03;;;;;;;12.02;8.43;;;;;;;10.78;90.97;97450.28;5065996;28;20025;-68
2021/04/29 01:41:29;;;;;;;12.05;8.60;;;;;;;10.85;90.30;97450.16;5062989;28;20359;-68
2021/04/29 01:43:55;;;;;;;14.73;9.18;;;;;;;10.81;91.57;97451.69;5074786;28;20031;-68
2021/04/29 01:46:22;;;;;;;15.10;8.43;;;;;;;10.82;91.54;97456.00;5074557;28;20116;-68
2021/04/29 01:48:48;;;;;;;14.35;8.55;;;;;;;10.88;90.42;97457.78;5064452;28;20086;-68
2021/04/29 01:51:13;;;;;;;14.35;9.18;;;;;;;10.79;89.83;97443.78;5054465;28;20587;-68
2021/04/29 01:53:39;;;;;;;13.38;8.80;;;;;;;10.68;91.16;97450.03;5036059;28;20033;-68
2021/04/29 01:56:05;;;;;;;11.35;8.57;;;;;;;10.69;90.79;97441.72;5056695;28;20043;-68
2021/04/29 01:58:31;;;;;;;14.70;9.68;;;;;;;10.75;91.30;97450.75;5056408;28;20049;-68
2021/04/29 02:00:56;;;;;;;13.73;9.20;;;;;;;10.59;91.44;97433.38;5037629;28;20025;-69
2021/04/29 02:03:22;;;;;;;13.65;9.30;;;;;;;10.71;91.33;97463.91;5068956;28;20021;-68
2021/04/29 02:05:47;;;;;;;14.60;8.85;;;;;;;10.67;91.35;97451.13;5071599;28;20074;-68
2021/04/29 02:08:12;;;;;;;16.35;10.85;;;;;;;10.58;92.19;97461.44;5059718;28;20029;-68
2021/04/29 02:10:38;;;;;;;14.35;9.60;;;;;;;10.65;92.45;97462.16;5050424;28;20073;-69
2021/04/29 02:13:08;;;;;;;17.48;11.30;;;;;;;10.62;92.83;97468.03;5061843;28;20027;-68
2021/04/29 02:15:39;;;;;;;15.02;9.27;;;;;;;10.66;92.79;97466.53;5073183;28;20024;-68
2021/04/29 02:18:08;;;;;;;16.55;10.38;;;;;;;10.62;93.20;97464.53;5071246;28;20017;-69
2021/04/29 02:20:36;;;;;;;16.10;10.18;;;;;;;10.78;93.38;97471.09;5061828;28;20043;-69
2021/04/29 02:23:09;;;;;;;12.93;8.10;;;;;;;10.75;92.89;97483.22;5055554;28;20022;-68
2021/04/29 02:25:35;;;;;;;16.17;10.50;;;;;;;10.82;93.18;97478.50;5034073;28;20151;-69
2021/04/29 02:28:01;;;;;;;17.65;11.35;;;;;;;10.75;93.40;97470.50;5053695;28;20021;-69
2021/04/29 02:30:27;;;;;;;16.35;10.45;;;;;;;10.89;92.77;97489.19;5069927;28;20078;-69
2021/04/29 02:32:52;;;;;;;18.17;11.65;;;;;;;10.75;93.28;97483.22;5062439;28;20036;-69
2021/04/29 02:35:18;;;;;;;18.15;12.40;;;;;;;10.84;93.19;97494.47;5064631;28;20433;-69
2021/04/29 02:37:45;;;;;;;21.02;12.10;;;;;;;10.74;93.18;97500.47;5070237;22;20044;-71
2021/04/29 02:40:13;;;;;;;22.65;12.93;;;;;;;10.85;92.86;97504.25;5065984;28;20102;-70
2021/04/29 02:42:39;;;;;;;20.15;12.38;;;;;;;10.77;92.80;97502.75;5064894;28;20029;-71
2021/04/29 02:45:13;;;;;;;17.25;11.45;;;;;;;10.69;92.96;97493.09;5050180;28;20021;-71
2021/04/29 02:47:40;;;;;;;17.17;11.30;;;;;;;10.83;92.83;97514.50;5063024;28;20445;-70
2021/04/29 02:50:10;;;;;;;18.88;10.80;;;;;;;10.90;92.75;97513.31;5060427;28;20067;-70
2021/04/29 02:52:38;;;;;;;19.35;12.35;;;;;;;10.82;92.79;97520.94;5036718;28;20090;-70
2021/04/29 02:55:05;;;;;;;19.92;13.30;;;;;;;10.81;93.43;97530.94;5073827;28;20028;-70
2021/04/29 02:57:31;;;;;;;23.30;12.73;;;;;;;10.81;92.76;97525.53;5074962;28;20021;-70
2021/04/29 02:59:56;;;;;;;21.90;13.05;;;;;;;10.71;93.24;97528.81;5042397;28;20675;-70
2021/04/29 03:02:22;;;;;;;18.55;13.18;;;;;;;10.68;93.25;97521.19;5054986;28;20021;-70
2021/04/29 03:04:49;;;;;;;20.10;11.82;;;;;;;10.63;93.77;97533.78;5050296;28;20025;-70
2021/04/29 03:07:14;;;;;;;15.80;10.38;;;;;;;10.63;92.99;97534.59;5064594;28;20029;-70
2021/04/29 03:09:39;;;;;;;14.43;9.43;;;;;;;10.62;92.79;97532.13;5057790;28;20032;-70
2021/04/29 03:12:05;;;;;;;11.82;8.35;;;;;;;10.56;91.69;97542.03;5056631;28;20036;-70
2021/04/29 03:14:30;;;;;;;11.43;7.80;;;;;;;10.60;91.69;97543.19;5074038;28;20023;-69
2021/04/29 03:16:55;;;;;;;11.52;7.15;;;;;;;10.60;91.14;97551.28;5079483;28;20205;-70
2021/04/29 03:19:21;;;;;;;12.80;7.68;;;;;;;10.59;91.23;97546.97;5077472;28;20088;-69
2021/04/29 03:21:46;;;;;;;13.18;7.25;;;;;;;10.59;91.37;97560.47;5079063;28;20091;-69
2021/04/29 03:24:11;;;;;;;11.73;7.53;;;;;;;10.55;90.67;97564.69;5082342;28;20031;-70
2021/04/29 03:26:37;;;;;;;13.00;8.40;;;;;;;10.57;90.95;97572.59;5090925;28;20052;-69
2021/04/29 03:29:02;;;;;;;10.85;7.40;;;;;;;10.49;90.69;97565.63;5091456;28;20020;-69
2021/04/29 03:31:28;;;;;;;11.40;7.20;;;;;;;10.50;91.22;97580.78;5090356;28;20100;-70
2021/04/29 03:33:53;;;;;;;11.95;7.50;;;;;;;10.46;91.29;97588.56;5076764;28;20029;-70
2021/04/29 03:36:18;;;;;;;11.05;7.07;;;;;;;10.39;90.36;97592.41;5087570;28;20039;-69
2021/04/29 03:38:44;;;;;;;9.00;6.07;;;;;;;10.41;90.33;97585.72;5089628;28;20302;-69
2021/04/29 03:41:09;;;;;;;7.55;5.60;;;;;;;10.37;90.26;97591.81;5067352;28;20033;-70
2021/04/29 03:43:34;;;;;;;7.18;5.45;;;;;;;10.39;89.87;97603.25;5035982;28;20025;-70
2021/04/29 03:46:00;;;;;;;8.57;5.00;;;;;;;10.42;89.24;97602.75;5057866;28;20038;-69
2021/04/29 03:48:25;;;;;;;8.52;4.93;;;;;;;10.26;89.47;97598.81;5054306;28;20033;-70
2021/04/29 03:50:50;;;;;;;6.78;4.97;;;;;;;10.30;89.43;97606.28;5055308;28;20026;-70
2021/04/29 03:53:16;;;;;;;6.47;4.53;;;;;;;10.33;89.66;97602.28;5071443;28;20057;-70
2021/04/29 03:55:41;;;;;;;6.22;4.55;;;;;;;10.40;89.18;97619.25;5065726;28;20032;-70
2021/04/29 03:58:07;;;;;;;6.15;4.13;;;;;;;10.40;89.01;97613.84;5053049;28;20453;-70
2021/04/29 04:00:33;;;;;;;7.47;4.10;;;;;;;10.45;88.55;97623.94;5081874;28;20042;-69
2021/04/29 04:02:58;;;;;;;5.07;3.58;;;;;;;10.36;88.19;97626.16;5047047;28;20103;-69
2021/04/29 04:05:23;;;;;;;4.78;3.42;;;;;;;10.30;88.13;97627.09;5059740;28;20026;-70
2021/04/29 04:07:48;;;;;;;4.75;3.40;;;;;;;10.16;88.32;97622.88;5067179;28;20112;-71
2021/04/29 04:10:14;;;;;;;6.05;3.40;;;;;;;10.24;88.04;97633.34;5056144;28;20494;-70
2021/04/29 04:12:39;;;;;;;4.93;3.67;;;;;;;10.17;88.01;97643.47;5061527;28;20040;-69
2021/04/29 04:15:07;;;;;;;4.68;3.10;;;;;;;10.09;87.13;97647.31;5055782;28;20556;-69
2021/04/29 04:17:32;;;;;;;5.63;3.33;;;;;;;10.04;87.57;97642.59;5053439;28;20028;-69
2021/04/29 04:19:58;;;;;;;4.47;3.22;;;;;;;10.09;87.01;97644.59;5069904;28;20053;-69
2021/04/29 04:22:23;;;;;;;5.72;3.40;;;;;;;10.06;87.03;97651.28;5091069;28;20028;-67
2021/04/29 04:24:48;;;;;;;5.65;3.40;;;;;;;10.05;86.87;97651.50;5077316;28;20025;-69
2021/04/29 04:27:13;;;;;;;4.90;3.38;;;;;;;10.08;86.63;97645.63;5075751;28;20170;-70
2021/04/29 04:29:39;;;;;;;5.47;3.28;;;;;;;10.08;86.70;97667.25;5087042;28;20039;-69
2021/04/29 04:32:04;;;;;;;5.28;3.30;;;;;;;9.99;86.97;97647.84;5058120;28;20028;-69
2021/04/29 04:34:30;;;;;;;5.60;2.85;;;;;;;10.02;86.73;97654.66;5075962;28;20033;-70
2021/04/29 04:36:55;;;;;;;4.38;3.17;;;;;;;10.10;85.68;97659.75;5058364;28;20031;-77
2021/04/29 04:39:21;;;;;;;4.75;3.22;;;;;;;10.03;85.99;97664.41;5076315;28;20856;-67
2021/04/29 04:41:46;;;;;;;7.60;3.60;;;;;;;9.92;85.80;97657.91;5093474;28;20016;-80
2021/04/29 04:44:12;;;;;;;5.70;3.25;;;;;;;9.89;86.29;97663.75;5069634;28;20088;-76
2021/04/29 04:46:37;;;;;;;5.35;2.97;;;;;;;9.93;86.47;97664.13;5073643;28;20082;-71
2021/04/29 04:49:02;;;;;;;6.30;3.40;;;;;;;9.91;86.73;97666.25;5077807;28;20057;-74
2021/04/29 04:51:39;;;;;;;6.25;3.50;;;;;;;9.84;86.48;97655.50;5064226;28;20020;-76
2021/04/29 04:54:04;;;;;;;4.97;3.42;;;;;;;9.88;86.55;97668.34;5075663;28;20473;-76
2021/04/29 04:56:30;;;;;;;7.03;3.47;;;;;;;9.86;86.03;97659.63;5076959;28;20025;-74
2021/04/29 04:58:55;;;;;;;5.53;2.97;;;;;;;9.88;86.16;97672.94;5050690;28;20021;-74
2021/04/29 05:01:21;;;;;;;4.80;3.22;;;;;;;9.92;86.09;97681.41;5039630;28;20021;-75
2021/04/29 05:03:48;;;;;;;4.00;3.08;;;;;;;10.03;85.66;97680.63;5044964;28;20036;-74
2021/04/29 05:06:15;;;;;;;7.25;3.40;;;;;;;10.18;85.04;97680.25;5066000;28;20099;-72
2021/04/29 05:08:40;;;;;;;4.63;3.08;;;;;;;10.25;84.74;97670.97;5070580;28;20051;-75
2021/04/29 05:11:06;;;;;;;5.57;2.95;;;;;;;10.34;83.78;97684.22;5055742;28;20044;-70
2021/04/29 05:13:31;;;;;;;7.15;3.13;;;;;;;10.49;83.13;97693.56;5042716;28;20057;-70
2021/04/29 05:15:56;;;;;;;5.18;3.13;;;;;;;10.60;82.38;97691.13;5062219;28;20063;-71
2021/04/29 05:18:25;;;;;;;5.32;3.42;;;;;;;10.70;82.03;97683.28;5056568;28;20470;-77
2021/04/29 05:20:50;;;;;;;4.20;3.05;;;;;;;10.60;81.98;97686.53;5054501;28;20033;-76
2021/04/29 05:23:15;;;;;;;3.67;2.53;;;;;;;10.91;81.14;97693.53;5050678;28;20021;-75
2021/04/29 05:25:40;;;;;;;6.45;3.20;;;;;;;11.15;80.86;97699.81;5073880;28;20024;-73
2021/04/29 05:28:06;;;;;;;3.75;2.50;;;;;;;11.59;79.06;97692.16;5069081;28;20029;-73
2021/04/29 05:30:32;;;;;;;4.78;2.63;;;;;;;11.72;79.10;97682.94;5063001;28;20088;-78
2021/04/29 05:32:57;;;;;;;4.15;2.53;;;;;;;11.88;77.44;97680.59;5071227;28;20033;-74
2021/04/29 05:35:23;;;;;;;3.58;2.50;;;;;;;12.20;76.30;97697.25;5057959;28;20522;-73
2021/04/29 05:37:48;;;;;;;3.60;2.50;;;;;;;12.04;76.85;97702.34;5059734;28;20029;-75
2021/04/29 05:40:13;;;;;;;4.53;2.80;;;;;;;12.27;75.98;97698.75;5048724;28;20020;-73
2021/04/29 05:42:40;;;;;;;3.90;2.42;;;;;;;12.35;75.85;97708.38;5057753;28;20119;-70
2021/04/29 05:45:06;;;;;;;3.80;2.42;;;;;;;12.32;75.44;97676.34;5054556;28;20108;-74
2021/04/29 05:47:31;;;;;;;5.55;2.70;;;;;;;12.30;75.99;97702.88;5039061;28;20550;-71
2021/04/29 05:49:56;;;;;;;4.72;2.83;;;;;;;12.15;76.05;97695.25;5070369;28;20119;-71
2021/04/29 05:52:22;;;;;;;4.88;2.78;;;;;;;12.00;76.83;97692.25;5061433;28;20032;-75
2021/04/29 05:54:47;;;;;;;4.68;2.88;;;;;;;12.38;75.81;97688.91;5068306;28;20114;-74
2021/04/29 05:57:12;;;;;;;4.75;2.72;;;;;;;12.47;75.72;97676.63;5060781;28;20159;-75
2021/04/29 05:59:38;;;;;;;6.43;2.80;;;;;;;12.80;74.51;97688.59;5049052;28;20028;-77
2021/04/29 06:02:03;;;;;;;3.42;2.38;;;;;;;13.06;74.23;97675.44;5071325;28;20028;-74
2021/04/29 06:04:29;;;;;;;6.38;2.60;;;;;;;13.32;71.29;97682.13;5055729;28;20033;-72
2021/04/29 06:06:55;;;;;;;4.07;2.50;;;;;;;13.54;71.57;97698.47;5068027;28;20419;-72
2021/04/29 06:09:20;;;;;;;3.83;2.20;;;;;;;14.16;69.30;97690.06;5045754;28;20043;-72
2021/04/29 06:11:45;;;;;;;6.10;2.50;;;;;;;15.40;65.22;97687.44;5060743;28;20032;-73
2021/04/29 06:14:12;;;;;;;3.38;2.50;;;;;;;16.12;62.87;97690.63;5066794;28;20503;-76
2021/04/29 06:16:38;;;;;;;4.20;2.67;;;;;;;17.19;59.17;97701.00;5060547;28;20410;-74
2021/04/29 06:19:04;;;;;;;2.80;1.95;;;;;;;18.38;55.81;97684.84;5042291;28;20090;-77
2021/04/29 06:21:29;;;;;;;3.28;2.10;;;;;;;17.78;56.67;97694.06;5074417;28;20481;-72
2021/04/29 06:23:54;;;;;;;4.80;2.28;;;;;;;16.74;59.76;97716.19;5056390;28;20028;-71
2021/04/29 06:26:20;;;;;;;4.22;2.38;;;;;;;16.62;59.89;97714.53;5046795;28;20051;-71
2021/04/29 06:28:45;;;;;;;4.00;2.10;;;;;;;17.45;58.66;97715.47;5079144;28;20046;-73
2021/04/29 06:31:10;;;;;;;2.88;2.08;;;;;;;18.01;56.77;97712.66;5055760;28;20040;-71
2021/04/29 06:33:36;;;;;;;3.30;1.88;;;;;;;18.67;55.22;97713.47;5069889;28;20439;-72
2021/04/29 06:36:01;;;;;;;3.33;2.13;;;;;;;18.04;55.89;97712.09;5059963;28;20025;-72
2021/04/29 06:38:26;;;;;;;2.83;1.95;;;;;;;18.10;55.90;97705.53;5057201;28;20029;-69
2021/04/29 06:40:52;;;;;;;3.17;1.75;;;;;;;18.07;56.89;97716.19;5058087;28;20056;-68
2021/04/29 06:43:17;;;;;;;3.45;1.67;;;;;;;19.33;52.39;97696.56;5054700;28;20038;-69
2021/04/29 06:45:43;;;;;;;3.67;1.85;;;;;;;19.65;50.66;97711.69;5055625;28;20036;-68
2021/04/29 06:48:09;;;;;;;2.47;1.70;;;;;;;18.35;54.93;97714.72;5055136;28;20025;-68
2021/04/29 06:50:35;;;;;;;4.25;1.60;;;;;;;19.44;52.86;97716.50;5063416;28;20073;-68
2021/04/29 06:53:00;;;;;;;3.25;1.80;;;;;;;17.90;55.00;97717.34;5065734;28;20044;-69
2021/04/29 06:55:26;;;;;;;3.42;2.03;;;;;;;17.03;57.19;97711.91;5038791;28;20047;-71
2021/04/29 06:57:51;;;;;;;3.28;1.58;;;;;;;16.37;58.86;97731.66;5074253;28;20086;-72
2021/04/29 07:00:17;;;;;;;2.00;1.70;;;;;;;15.87;60.36;97726.78;5074578;28;20245;-73
2021/04/29 07:02:42;;;;;;;5.63;1.70;;;;;;;16.08;61.02;97714.06;5058523;28;20028;-71
2021/04/29 07:05:08;;;;;;;3.55;2.15;;;;;;;16.12;60.75;97724.19;5073718;28;20020;-73
2021/04/29 07:07:33;;;;;;;2.80;2.00;;;;;;;16.05;59.54;97725.50;5072889;28;20028;-72
2021/04/29 07:09:59;;;;;;;5.00;2.08;;;;;;;16.03;59.06;97727.66;5047708;28;20028;-72
2021/04/29 07:12:24;;;;;;;3.38;2.13;;;;;;;15.21;58.01;97727.09;5055740;28;20037;-75
2021/04/29 07:14:49;;;;;;;2.33;1.73;;;;;;;16.32;55.61;97725.34;5053683;28;20037;-74
2021/04/29 07:17:15;;;;;;;3.42;1.92;;;;;;;17.33;53.12;97723.94;5054425;28;20029;-70
2021/04/29 07:19:40;;;;;;;3.33;2.10;;;;;;;17.16;54.27;97724.22;5054301;28;20485;-71
2021/04/29 07:22:06;;;;;;;4.80;2.20;;;;;;;15.90;56.39;97735.25;5054712;28;20055;-71
2021/04/29 07:24:32;;;;;;;4.57;2.45;;;;;;;16.65;54.52;97713.19;5054181;28;20043;-71
2021/04/29 07:26:57;;;;;;;5.20;2.40;;;;;;;19.75;48.47;97717.06;5067037;28;20498;-71
2021/04/29 07:29:23;;;;;;;5.10;2.70;;;;;;;19.79;47.41;97722.81;5063293;28;20056;-71
2021/04/29 07:31:48;;;;;;;5.22;2.28;;;;;;;19.07;48.82;97722.56;5076314;28;20487;-72
2021/04/29 07:34:13;;;;;;;4.47;2.83;;;;;;;18.15;49.94;97719.16;5072885;28;20020;-72
2021/04/29 07:36:39;;;;;;;4.35;2.60;;;;;;;17.60;51.91;97733.78;5073495;28;20066;-71
2021/04/29 07:39:05;;;;;;;5.20;2.60;;;;;;;17.62;52.53;97732.41;5066747;28;20033;-72
2021/04/29 07:41:30;;;;;;;4.18;2.30;;;;;;;18.22;51.17;97720.81;5075535;28;20020;-72
2021/04/29 07:43:59;;;;;;;4.43;2.08;;;;;;;19.51;48.18;97713.44;5073258;28;20028;-70
2021/04/29 07:46:25;;;;;;;5.97;2.22;;;;;;;19.60;47.82;97714.47;5073447;28;20412;-71
2021/04/29 07:48:50;;;;;;;5.07;2.20;;;;;;;20.17;46.56;97718.28;5087681;28;20034;-71
2021/04/29 07:51:16;;;;;;;6.43;2.80;;;;;;;21.48;43.58;97712.34;5072489;28;20032;-71
2021/04/29 07:53:41;;;;;;;5.32;3.08;;;;;;;21.55;42.87;97713.59;5069337;28;20090;-72
2021/04/29 07:56:07;;;;;;;4.10;2.40;;;;;;;23.26;40.57;97705.16;5055174;28;20024;-72
2021/04/29 07:58:32;;;;;;;4.55;2.65;;;;;;;24.13;40.49;97700.19;5054885;28;20024;-72
2021/04/29 08:00:58;;;;;;;4.30;2.35;;;;;;;27.49;35.43;97696.44;5072290;28;20543;-69
2021/04/29 08:03:23;;;;;;;4.15;2.78;;;;;;;25.94;34.97;97689.56;5069684;28;20522;-70
2021/04/29 08:05:49;;;;;;;5.07;2.88;;;;;;;26.45;34.83;97700.75;5072432;28;20058;-70
2021/04/29 08:08:15;;;;;;;6.45;3.30;;;;;;;26.04;36.05;97709.75;5072280;28;20035;-71
2021/04/29 08:10:41;;;;;;;6.07;2.70;;;;;;;27.02;34.09;97689.16;5072216;28;20028;-70
2021/04/29 08:13:07;;;;;;;9.93;3.10;;;;;;;26.52;34.52;97708.59;5066726;28;20027;-70
2021/04/29 08:15:32;;;;;;;5.55;2.55;;;;;;;26.94;33.89;97715.00;5079984;28;20036;-71
2021/04/29 08:17:58;;;;;;;5.10;3.20;;;;;;;24.99;36.78;97720.91;5065921;28;20028;-70
2021/04/29 08:20:23;;;;;;;5.47;3.10;;;;;;;22.28;41.25;97734.03;5074253;28;20055;-72
2021/04/29 08:22:48;;;;;;;4.95;2.70;;;;;;;21.64;42.93;97717.31;5072117;28;20025;-71
2021/04/29 08:25:13;;;;;;;3.95;2.88;;;;;;;21.23;43.29;97737.22;5069471;28;20036;-72
2021/04/29 08:27:40;;;;;;;8.88;3.78;;;;;;;21.98;41.91;97718.91;5067723;28;20029;-71
2021/04/29 08:30:06;;;;;;;4.85;2.92;;;;;;;24.43;38.21;97717.03;5069078;28;20017;-73
2021/04/29 08:32:32;;;;;;;4.43;2.60;;;;;;;24.62;39.34;97728.66;5054090;28;20020;-71
2021/04/29 08:34:57;;;;;;;7.18;3.45;;;;;;;25.86;36.81;97726.44;5051326;28;20040;-71
2021/04/29 08:37:22;;;;;;;5.63;3.45;;;;;;;24.34;37.36;97743.81;5072069;28;20027;-71
2021/04/29 08:39:48;;;;;;;5.05;3.38;;;;;;;22.22;41.79;97727.00;5079486;28;20023;-71
2021/04/29 08:42:15;;;;;;;5.53;3.10;;;;;;;22.44;42.06;97745.56;5070059;28;20044;-71
2021/04/29 08:44:41;;;;;;;5.13;3.40;;;;;;;20.59;44.23;97741.41;5071896;28;20040;-71
2021/04/29 08:47:06;;;;;;;10.82;3.70;;;;;;;19.68;46.92;97739.38;5067983;28;20029;-71
2021/04/29 08:49:32;;;;;;;4.18;3.40;;;;;;;18.23;49.61;97750.63;5072343;28;20025;-70
2021/04/29 08:51:57;;;;;;;5.38;3.63;;;;;;;17.48;51.76;97739.53;5072590;28;20031;-71
2021/04/29 08:54:22;;;;;;;7.75;3.90;;;;;;;16.36;53.93;97749.13;5062023;28;20106;-70
2021/04/29 08:56:48;;;;;;;6.82;4.32;;;;;;;15.66;56.30;97748.41;5071980;28;20028;-70
2021/04/29 08:59:14;;;;;;;7.20;4.18;;;;;;;15.62;58.66;97751.97;5049962;28;20048;-71
2021/04/29 09:01:41;;;;;;;5.95;3.85;;;;;;;15.40;57.24;97752.84;5054092;28;20028;-70
2021/04/29 09:04:18;;;;;;;6.82;4.35;;;;;;;15.00;60.40;97759.59;5052394;28;20016;-70
2021/04/29 09:06:45;;;;;;;7.57;4.60;;;;;;;14.81;64.03;97758.31;5053078;28;20020;-70
2021/04/29 09:09:17;;;;;;;6.90;4.28;;;;;;;14.63;65.53;97778.53;5071647;28;20025;-71
2021/04/29 09:11:51;;;;;;;7.70;4.47;;;;;;;14.40;64.84;97764.06;5071978;28;20554;-70
2021/04/29 09:14:32;;;;;;;6.18;4.53;;;;;;;14.24;64.00;97764.97;5058105;28;20021;-70
2021/04/29 09:16:58;;;;;;;9.38;4.38;;;;;;;14.14;64.85;97773.00;5071844;28;20142;-70
2021/04/29 09:19:30;;;;;;;9.73;4.70;;;;;;;13.98;65.58;97774.69;5054110;28;20021;-70
2021/04/29 09:21:57;;;;;;;8.57;4.80;;;;;;;13.98;65.96;97769.25;5091895;28;20520;-70
2021/04/29 09:24:36;;;;;;;14.18;4.47;;;;;;;13.69;64.90;97772.09;5085802;28;20043;-70
2021/04/29 09:27:12;;;;;;;;;;;;;;;13.59;64.88;97778.19;5071829;28;20024;-70
2021/04/29 09:29:55;;;;;;;8.05;4.80;;;;;;;13.58;66.24;97775.72;5061945;28;19908;-70
2021/04/29 09:32:28;;;;;;;8.80;5.30;;;;;;;13.23;68.49;97779.50;5065440;28;20024;-70
2021/04/29 09:34:54;;;;;;;7.68;4.80;;;;;;;13.51;68.53;97765.00;5062223;28;20441;-70
2021/04/29 09:37:27;;;;;;;7.45;4.72;;;;;;;13.66;66.81;97767.16;5063013;28;20119;-72
2021/04/29 09:39:52;;;;;;;10.98;5.18;;;;;;;13.87;67.25;97779.16;5071810;28;20596;-72
2021/04/29 09:42:32;;;;;;;10.40;5.10;;;;;;;14.14;67.68;97783.88;5070737;28;20063;-70
2021/04/29 09:44:59;;;;;;;7.80;4.97;;;;;;;14.06;66.40;97782.41;5066063;28;20071;-75
2021/04/29 09:47:24;;;;;;;8.60;5.05;;;;;;;14.17;66.85;97784.22;5066835;28;20028;-75
2021/04/29 09:49:50;;;;;;;8.13;5.00;;;;;;;14.60;65.22;97777.16;5071352;28;20478;-70
2021/04/29 09:52:21;;;;;;;8.05;5.18;;;;;;;15.05;64.36;97778.72;5060911;28;20025;-70
2021/04/29 09:54:47;;;;;;;10.00;5.10;;;;;;;15.71;60.45;97764.03;5073274;28;20021;-70
2021/04/29 09:57:21;;;;;;;7.28;4.55;;;;;;;16.27;60.16;97775.28;5067789;28;20040;-70
2021/04/29 09:59:49;;;;;;;9.88;5.05;;;;;;;17.41;57.48;97771.78;5065295;28;20036;-70
2021/04/29 10:02:17;;;;;;;9.05;5.70;;;;;;;17.75;57.39;97774.78;5066954;28;20343;-69
2021/04/29 10:04:44;;;;;;;9.35;5.70;;;;;;;17.90;57.11;97776.72;5061645;28;20104;-70
2021/04/29 10:07:10;;;;;;;10.32;5.45;;;;;;;17.44;56.81;97782.19;5062436;28;20056;-70
2021/04/29 10:09:37;;;;;;;6.75;5.25;;;;;;;17.68;57.82;97772.34;5062911;28;20063;-70
2021/04/29 10:12:07;;;;;;;8.13;5.10;;;;;;;18.34;55.50;97778.81;5067347;28;20498;-70
2021/04/29 10:14:34;;;;;;;6.65;4.90;;;;;;;18.40;55.24;97774.94;5067388;28;20144;-70
2021/04/29 10:17:08;;;;;;;8.68;5.25;;;;;;;18.30;52.72;97775.81;5042233;28;20386;-72
2021/04/29 10:19:37;;;;;;;11.63;5.43;;;;;;;19.55;49.74;97761.16;5060283;28;20433;-73
2021/04/29 10:22:04;;;;;;;7.95;4.85;;;;;;;20.23;48.05;97772.06;5066643;28;20090;-74
2021/04/29 10:24:29;;;;;;;10.68;4.97;;;;;;;21.85;46.07;97744.47;5052295;28;20032;-76
2021/04/29 10:27:06;;;;;;;8.32;5.07;;;;;;;23.64;43.84;97748.97;5065837;28;20033;-75
2021/04/29 10:29:32;;;;;;;6.70;4.55;;;;;;;22.47;44.66;97760.69;5048613;28;20059;-72
2021/04/29 10:31:59;;;;;;;7.07;4.90;;;;;;;21.04;45.90;97761.16;5052650;28;20024;-71
2021/04/29 10:34:35;;;;;;;5.95;4.68;;;;;;;20.28;47.98;97762.94;5074519;28;20036;-71
2021/04/29 10:37:00;;;;;;;5.60;4.60;;;;;;;19.59;49.26;97762.19;5069994;28;20016;-75
2021/04/29 10:39:26;;;;;;;6.68;4.55;;;;;;;19.66;49.60;97766.28;5071385;28;20116;-71
2021/04/29 10:42:07;;;;;;;7.38;4.75;;;;;;;19.64;49.07;97762.16;5070962;28;20048;-70
2021/04/29 10:44:46;;;;;;;7.22;4.75;;;;;;;19.14;51.97;97795.16;5065095;28;20013;-70
2021/04/29 10:47:30;;;;;;;4.70;2.60;;;;;;;17.05;48.23;97810.81;5062891;28;20605;-75
2021/04/29 10:50:14;;;;;;;5.85;3.00;;;;;;;15.21;52.30;97820.56;5044195;28;20518;-75
2021/04/29 10:52:49;;;;;;;4.97;3.03;;;;;;;14.32;55.70;97832.53;5047654;28;20082;-70
2021/04/29 10:55:44;;;;;;;13.52;3.58;;;;;;;13.68;60.57;97835.69;5042788;28;20036;-70
2021/04/29 10:58:22;;;;;;;4.10;3.20;;;;;;;12.93;62.51;97831.34;5054655;28;20037;-74
2021/04/29 11:01:06;;;;;;;5.53;3.60;;;;;;;12.38;65.06;97848.94;5056204;28;20020;-75
2021/04/29 11:03:34;;;;;;;6.75;4.05;;;;;;;11.85;68.88;97858.03;5059171;28;20120;-74
2021/04/29 11:06:30;;;;;;;10.88;4.90;;;;;;;11.11;72.43;97858.34;5072257;28;20473;-74
2021/04/29 11:08:57;;;;;;;10.85;4.18;;;;;;;10.80;72.92;97861.28;5061077;28;20024;-73
2021/04/29 11:11:36;;;;;;;8.50;4.50;;;;;;;10.99;73.63;97870.19;5056123;28;20066;-74
2021/04/29 11:14:13;;;;;;;5.53;3.70;;;;;;;11.53;71.03;97869.19;5037160;28;20021;-73
2021/04/29 11:16:53;;;;;;;10.38;3.95;;;;;;;13.19;67.67;97870.66;5060474;28;20033;-75
2021/04/29 11:19:39;;;;;;;6.53;3.55;;;;;;;14.89;66.57;97866.78;5071419;28;20048;-75
2021/04/29 11:22:10;;;;;;;5.30;3.40;;;;;;;14.66;61.52;97860.50;5056569;28;20031;-76
2021/04/29 11:24:41;;;;;;;7.20;3.75;;;;;;;14.79;62.90;97844.88;5045479;28;20016;-74
2021/04/29 11:27:27;;;;;;;7.10;3.90;;;;;;;14.78;58.68;97835.91;5069667;28;20035;-74
2021/04/29 11:30:02;;;;;;;4.95;3.20;;;;;;;13.25;63.18;97855.28;5065798;28;20486;-71
2021/04/29 11:32:29;;;;;;;6.05;3.88;;;;;;;13.61;61.97;97834.19;5059859;28;20071;-71